METAR Data
IDs: Format: Raw Decoded Include TAF

Data at: 2017 UTC 17 Nov 2019

METAR for:PADQ (Kodiak Arpt, AK, US)
Text:PADQ 171953Z 29005KT 10SM BKN045 OVC110 01/M02 A2943 RMK AO2 SLP966 T00061017 $
Temperature: 0.6°C ( 33°F)
Dewpoint: -1.7°C ( 29°F) [RH = 85%]
Pressure (altimeter):29.43 inches Hg ( 996.7 mb) [Sea level pressure: 996.6 mb]
Winds:from the WNW (290 degrees) at 6 MPH (5 knots; 2.6 m/s)
Visibility:10 or more sm (16+ km)
Ceiling:4500 feet AGL
Clouds: broken clouds at 4500 feet AGL, overcast cloud deck at 11000 feet AGL
QC Flag:SOME DATA ABOVE MAY BE INACCURATE!!!"$" is an indication the sensor requires maintenance.
Text:PADQ 171853Z 29005KT 10SM BKN100 M01/M02 A2941 RMK AO2 SLP961 T10111022 $
Temperature: -1.1°C ( 30°F)
Dewpoint: -2.2°C ( 28°F) [RH = 92%]
Pressure (altimeter):29.41 inches Hg ( 996.0 mb) [Sea level pressure: 996.1 mb]
Winds:from the WNW (290 degrees) at 6 MPH (5 knots; 2.6 m/s)
Visibility:10 or more sm (16+ km)
Ceiling:10000 feet AGL
Clouds: broken clouds at 10000 feet AGL
QC Flag:SOME DATA ABOVE MAY BE INACCURATE!!!"$" is an indication the sensor requires maintenance.
Text:PADQ 171753Z 28004KT 9SM CLR M01/M02 A2939 RMK AO2 SLP954 T10061022 10000 21017 53015 $
Temperature: -0.6°C ( 31°F)
Dewpoint: -2.2°C ( 28°F) [RH = 89%]
Pressure (altimeter):29.39 inches Hg ( 995.3 mb) [Sea level pressure: 995.4 mb]
Winds:from the W (280 degrees) at 5 MPH (4 knots; 2.1 m/s)
Visibility: 9 sm ( 14 km)
Ceiling:at least 12,000 feet AGL
Clouds:sky clear below 12,000 feet AGL
QC Flag:SOME DATA ABOVE MAY BE INACCURATE!!!"$" is an indication the sensor requires maintenance.
Text:PADQ 171653Z AUTO 31005KT 10SM CLR M01/M03 A2937 RMK AO2 SLP947 T10061028 TSNO $
Temperature: -0.6°C ( 31°F)
Dewpoint: -2.8°C ( 27°F) [RH = 85%]
Pressure (altimeter):29.37 inches Hg ( 994.7 mb) [Sea level pressure: 994.7 mb]
Winds:from the NW (310 degrees) at 6 MPH (5 knots; 2.6 m/s)
Visibility:10 or more sm (16+ km)
Ceiling:at least 12,000 feet AGL
Clouds:sky clear below 12,000 feet AGL
QC Flag:automated observation with no human augmentation; SOME DATA ABOVE MAY BE INACCURATE!!!"$" is an indication the sensor requires maintenance.
Text:PADQ 171553Z AUTO 28005KT 10SM CLR M01/M02 A2936 RMK AO2 SLP942 T10061022 TSNO $
Temperature: -0.6°C ( 31°F)
Dewpoint: -2.2°C ( 28°F) [RH = 89%]
Pressure (altimeter):29.36 inches Hg ( 994.3 mb) [Sea level pressure: 994.2 mb]
Winds:from the W (280 degrees) at 6 MPH (5 knots; 2.6 m/s)
Visibility:10 or more sm (16+ km)
Ceiling:at least 12,000 feet AGL
Clouds:sky clear below 12,000 feet AGL
QC Flag:automated observation with no human augmentation; SOME DATA ABOVE MAY BE INACCURATE!!!"$" is an indication the sensor requires maintenance.
Text:PADQ 171453Z AUTO 28006KT 10SM CLR M01/M02 A2935 RMK AO2 SLP939 T10061022 53013 TSNO
Temperature: -0.6°C ( 31°F)
Dewpoint: -2.2°C ( 28°F) [RH = 89%]
Pressure (altimeter):29.35 inches Hg ( 994.0 mb) [Sea level pressure: 993.9 mb]
Winds:from the W (280 degrees) at 7 MPH (6 knots; 3.1 m/s)
Visibility:10 or more sm (16+ km)
Ceiling:at least 12,000 feet AGL
Clouds:sky clear below 12,000 feet AGL
QC Flag:automated observation with no human augmentation

TAF for:PADQ (Kodiak Arpt, AK, US) issued at 1745 UTC 17 Nov 2019
Text:PADQ 171745Z 1718/1818 30006KT P6SM SCT050
Forecast period:1800 to 2000 UTC 17 November 2019
Forecast type:FROM: standard forecast or significant change
Winds:from the WNW (300 degrees) at 7 MPH (6 knots; 3.1 m/s)
Visibility:6 or more sm (10+ km)
Ceiling:at least 12,000 feet AGL
Clouds: scattered clouds at 5000 feet AGL
Text:FM172000 27012KT P6SM BKN050
Forecast period:2000 UTC 17 November 2019 to 0300 UTC 18 November 2019
Forecast type:FROM: standard forecast or significant change
Winds:from the W (270 degrees) at 14 MPH (12 knots; 6.2 m/s)
Visibility:6 or more sm (10+ km)
Ceiling:5000 feet AGL
Clouds: broken clouds at 5000 feet AGL
Text:FM180300 25007KT P6SM SCT050 BKN080
Forecast period:0300 to 1500 UTC 18 November 2019
Forecast type:FROM: standard forecast or significant change
Winds:from the WSW (250 degrees) at 8 MPH (7 knots; 3.6 m/s)
Visibility:6 or more sm (10+ km)
Ceiling:8000 feet AGL
Clouds: scattered clouds at 5000 feet AGL, broken clouds at 8000 feet AGL
Text:FM181500 17004KT P6SM SCT030 OVC050
Forecast period:1500 to 1800 UTC 18 November 2019
Forecast type:FROM: standard forecast or significant change
Winds:from the S (170 degrees) at 5 MPH (4 knots; 2.1 m/s)
Visibility:6 or more sm (10+ km)
Ceiling:5000 feet AGL
Clouds: scattered clouds at 3000 feet AGL, overcast cloud deck at 5000 feet AGL